Time;durP1;ratioP1;P1;durP2;ratioP2;P2;SDS_P1;SDS_P2;PMS_P1;PMS_P2;Temp;Humidity;BMP_temperature;BMP_pressure;BME280_temperature;BME280_humidity;BME280_pressure;Samples;Min_cycle;Max_cycle;Signal;HPM_P1;HPM_P2
2024/03/03 00:01:10;;;;;;;35.15;13.73;;;;;;;;;;5067645;28;20079;-42
2024/03/03 00:03:37;;;;;;;34.78;12.88;;;;;;;;;;5067269;28;20017;-47
2024/03/03 00:06:04;;;;;;;38.60;12.80;;;;;;;;;;5067495;28;20033;-49
2024/03/03 00:08:30;;;;;;;31.65;13.48;;;;;;;;;;5067158;28;20341;-50
2024/03/03 00:10:57;;;;;;;32.75;13.10;;;;;;;;;;5067510;28;20363;-51
2024/03/03 00:13:24;;;;;;;32.88;13.05;;;;;;;;;;5066833;28;20021;-47
2024/03/03 00:15:51;;;;;;;31.25;13.40;;;;;;;;;;5067265;28;20036;-53
2024/03/03 00:18:18;;;;;;;30.95;12.38;;;;;;;;;;5067062;28;20019;-48
2024/03/03 00:20:45;;;;;;;46.97;13.25;;;;;;;;;;5067136;28;20028;-52
2024/03/03 00:23:11;;;;;;;33.53;13.30;;;;;;;;;;5066984;28;20021;-51
2024/03/03 00:25:38;;;;;;;31.75;13.20;;;;;;;;;;5067150;28;20090;-51
2024/03/03 00:28:05;;;;;;;32.92;13.10;;;;;;;;;;5066846;28;20080;-53
2024/03/03 00:30:32;;;;;;;31.33;13.10;;;;;;;;;;5067199;28;20021;-50
2024/03/03 00:32:58;;;;;;;29.95;13.27;;;;;;;;;;5067022;28;20024;-53
2024/03/03 00:35:25;;;;;;;31.13;13.35;;;;;;;;;;5066938;28;20041;-50
2024/03/03 00:37:51;;;;;;;28.60;12.93;;;;;;;;;;5067439;28;20017;-49
2024/03/03 00:40:18;;;;;;;71.32;16.13;;;;;;;;;;5067046;28;20062;-51
2024/03/03 00:42:45;;;;;;;39.70;13.18;;;;;;;;;;5062765;28;20064;-48
2024/03/03 00:45:11;;;;;;;35.38;13.23;;;;;;;;;;5056231;28;20060;-41
2024/03/03 00:47:38;;;;;;;33.40;12.40;;;;;;;;;;5046741;28;20221;-42
2024/03/03 00:50:05;;;;;;;47.55;14.40;;;;;;;;;;5054833;28;20030;-51
2024/03/03 00:52:31;;;;;;;41.58;13.07;;;;;;;;;;5066371;28;20017;-48
2024/03/03 00:54:58;;;;;;;73.05;15.30;;;;;;;;;;5066087;28;20028;-42
2024/03/03 00:57:24;;;;;;;94.07;18.17;;;;;;;;;;5066753;28;20261;-49
2024/03/03 00:59:51;;;;;;;52.45;14.10;;;;;;;;;;5065886;28;20037;-49
2024/03/03 01:02:18;;;;;;;37.63;13.85;;;;;;;;;;5062516;28;20024;-45
2024/03/03 01:04:44;;;;;;;48.78;13.73;;;;;;;;;;5061137;28;20021;-48
2024/03/03 01:07:11;;;;;;;34.33;12.20;;;;;;;;;;5057173;28;20022;-47
2024/03/03 01:09:37;;;;;;;35.40;13.55;;;;;;;;;;5065824;28;20025;-45
2024/03/03 01:12:04;;;;;;;28.38;11.77;;;;;;;;;;5066054;28;20017;-45
2024/03/03 01:14:31;;;;;;;27.90;12.55;;;;;;;;;;5058982;28;20062;-54
2024/03/03 01:16:58;;;;;;;33.95;12.57;;;;;;;;;;5059000;28;20021;-52
2024/03/03 01:19:24;;;;;;;34.90;12.63;;;;;;;;;;5064252;28;20237;-53
2024/03/03 01:21:51;;;;;;;32.38;11.93;;;;;;;;;;5056175;28;20092;-51
2024/03/03 01:24:18;;;;;;;35.20;12.40;;;;;;;;;;5045831;28;20021;-51
2024/03/03 01:26:44;;;;;;;27.00;12.63;;;;;;;;;;5046298;28;20029;-43
2024/03/03 01:29:11;;;;;;;34.05;12.55;;;;;;;;;;5045875;28;20025;-46
2024/03/03 01:31:37;;;;;;;22.35;11.82;;;;;;;;;;5046056;28;20029;-52
2024/03/03 01:34:04;;;;;;;34.25;12.68;;;;;;;;;;5045701;28;20020;-44
2024/03/03 01:36:30;;;;;;;38.53;12.70;;;;;;;;;;5045799;28;20202;-43
2024/03/03 01:38:57;;;;;;;45.33;14.32;;;;;;;;;;5045032;28;20375;-54
2024/03/03 01:41:24;;;;;;;40.63;14.77;;;;;;;;;;5045547;28;20318;-48
2024/03/03 01:43:51;;;;;;;31.52;13.70;;;;;;;;;;5045330;28;20045;-42
2024/03/03 01:46:18;;;;;;;33.42;13.30;;;;;;;;;;5045210;28;20359;-46
2024/03/03 01:48:44;;;;;;;22.35;12.35;;;;;;;;;;5049432;28;20048;-49
2024/03/03 01:51:12;;;;;;;22.35;12.68;;;;;;;;;;5056593;28;20032;-44
2024/03/03 01:53:40;;;;;;;21.10;11.82;;;;;;;;;;5065314;28;20357;-45
2024/03/03 01:56:07;;;;;;;32.40;12.38;;;;;;;;;;5065565;28;20055;-42
2024/03/03 01:58:33;;;;;;;23.30;12.13;;;;;;;;;;5056301;28;20017;-43
2024/03/03 02:01:01;;;;;;;19.92;10.90;;;;;;;;;;5054110;28;20037;-46
2024/03/03 02:03:29;;;;;;;35.05;11.98;;;;;;;;;;5056263;28;20021;-51
2024/03/03 02:05:55;;;;;;;27.70;12.23;;;;;;;;;;5056485;28;20205;-43
2024/03/03 02:08:22;;;;;;;24.77;11.77;;;;;;;;;;5065036;28;20059;-39
2024/03/03 02:10:49;;;;;;;21.20;11.52;;;;;;;;;;5065168;28;20024;-47
2024/03/03 02:13:16;;;;;;;20.75;12.13;;;;;;;;;;5058038;28;20051;-41
2024/03/03 02:15:42;;;;;;;22.15;12.45;;;;;;;;;;5058863;28;20028;-51
2024/03/03 02:18:09;;;;;;;23.33;12.18;;;;;;;;;;5046948;28;20093;-50
2024/03/03 02:20:36;;;;;;;19.80;11.88;;;;;;;;;;5044874;28;20076;-42
2024/03/03 02:23:02;;;;;;;18.67;12.00;;;;;;;;;;5047157;28;20277;-40
2024/03/03 02:25:29;;;;;;;23.90;12.13;;;;;;;;;;5052776;28;20199;-41
2024/03/03 02:27:56;;;;;;;20.33;13.00;;;;;;;;;;5044476;28;20048;-44
2024/03/03 02:30:22;;;;;;;23.20;14.00;;;;;;;;;;5044874;28;20029;-51
2024/03/03 02:32:50;;;;;;;24.70;13.55;;;;;;;;;;5044658;28;20021;-41
2024/03/03 02:35:16;;;;;;;21.63;13.10;;;;;;;;;;5044600;28;20033;-45
2024/03/03 02:37:46;;;;;;;21.23;13.27;;;;;;;;;;5044598;28;20048;-40
2024/03/03 02:40:13;;;;;;;26.98;12.95;;;;;;;;;;5064410;28;20182;-53
2024/03/03 02:42:39;;;;;;;25.17;13.70;;;;;;;;;;5057491;28;20029;-46
2024/03/03 02:45:06;;;;;;;24.65;12.50;;;;;;;;;;5050326;28;20061;-51
2024/03/03 02:47:33;;;;;;;16.50;12.45;;;;;;;;;;5044367;28;20021;-49
2024/03/03 02:50:03;;;;;;;17.70;12.77;;;;;;;;;;5044165;28;20045;-53
2024/03/03 02:52:30;;;;;;;18.88;12.57;;;;;;;;;;5044249;28;20213;-46
2024/03/03 02:54:56;;;;;;;22.50;14.73;;;;;;;;;;5047877;28;20098;-51
2024/03/03 02:57:23;;;;;;;22.98;16.48;;;;;;;;;;5051363;28;20044;-49
2024/03/03 02:59:50;;;;;;;22.08;15.57;;;;;;;;;;5044160;28;20040;-52
2024/03/03 03:02:16;;;;;;;19.95;15.02;;;;;;;;;;5062513;28;20013;-49
2024/03/03 03:04:43;;;;;;;23.23;14.43;;;;;;;;;;5058513;28;20059;-47
2024/03/03 03:07:09;;;;;;;22.33;13.32;;;;;;;;;;5064063;28;20021;-52
2024/03/03 03:09:36;;;;;;;22.50;13.60;;;;;;;;;;5063965;28;20021;-50
2024/03/03 03:12:03;;;;;;;20.65;13.48;;;;;;;;;;5063895;28;20043;-52
2024/03/03 03:14:29;;;;;;;17.15;12.90;;;;;;;;;;5064267;28;20024;-50
2024/03/03 03:16:58;;;;;;;19.17;12.80;;;;;;;;;;5064290;28;20048;-46
2024/03/03 03:19:26;;;;;;;16.23;13.00;;;;;;;;;;5063849;28;20017;-44
2024/03/03 03:21:53;;;;;;;17.38;13.07;;;;;;;;;;5064439;28;20029;-49
2024/03/03 03:24:19;;;;;;;17.83;12.57;;;;;;;;;;5062564;28;20025;-49
2024/03/03 03:26:46;;;;;;;15.82;13.20;;;;;;;;;;5064132;28;20096;-54
2024/03/03 03:29:12;;;;;;;18.33;13.10;;;;;;;;;;5063925;28;20063;-52
2024/03/03 03:31:39;;;;;;;23.73;14.15;;;;;;;;;;5064262;28;20029;-53
2024/03/03 03:34:05;;;;;;;20.83;14.50;;;;;;;;;;5063744;28;20040;-52
2024/03/03 03:36:32;;;;;;;16.60;13.82;;;;;;;;;;5064095;28;20032;-52
2024/03/03 03:38:59;;;;;;;16.65;13.90;;;;;;;;;;5062724;28;20165;-47
2024/03/03 03:41:26;;;;;;;17.58;13.63;;;;;;;;;;5063898;28;20025;-53
2024/03/03 03:43:52;;;;;;;18.90;13.43;;;;;;;;;;5063575;28;20028;-51
2024/03/03 03:46:20;;;;;;;16.05;13.57;;;;;;;;;;5063631;28;20055;-47
2024/03/03 03:48:47;;;;;;;68.32;18.25;;;;;;;;;;5068484;28;20025;-58
2024/03/03 03:51:13;;;;;;;36.55;15.60;;;;;;;;;;5073821;28;20035;-50
2024/03/03 03:53:40;;;;;;;27.30;14.63;;;;;;;;;;5081726;28;20084;-46
2024/03/03 03:56:06;;;;;;;36.45;15.05;;;;;;;;;;5083931;28;20025;-49
2024/03/03 03:58:33;;;;;;;30.52;14.65;;;;;;;;;;5063895;28;20071;-40
2024/03/03 04:01:00;;;;;;;24.95;13.75;;;;;;;;;;5063909;28;20032;-53
2024/03/03 04:03:26;;;;;;;25.63;14.45;;;;;;;;;;5077447;28;20032;-52
2024/03/03 04:05:53;;;;;;;26.67;14.52;;;;;;;;;;5067893;28;20074;-46
2024/03/03 04:08:19;;;;;;;25.63;15.18;;;;;;;;;;5063356;28;20021;-41
2024/03/03 04:10:46;;;;;;;21.73;13.98;;;;;;;;;;5063646;28;20029;-49
2024/03/03 04:13:12;;;;;;;20.35;14.02;;;;;;;;;;5056950;28;20021;-53
2024/03/03 04:15:39;;;;;;;19.33;14.32;;;;;;;;;;5053940;28;20060;-55
2024/03/03 04:18:06;;;;;;;19.63;14.40;;;;;;;;;;5074288;28;20236;-45
2024/03/03 04:20:32;;;;;;;18.10;13.23;;;;;;;;;;5083356;28;20366;-47
2024/03/03 04:22:59;;;;;;;19.80;13.73;;;;;;;;;;5083405;28;20332;-44
2024/03/03 04:25:25;;;;;;;16.02;13.80;;;;;;;;;;5083519;28;20051;-48
2024/03/03 04:27:52;;;;;;;15.40;13.77;;;;;;;;;;5083330;28;20021;-42
2024/03/03 04:30:19;;;;;;;23.50;13.80;;;;;;;;;;5083485;28;20073;-44
2024/03/03 04:32:46;;;;;;;18.08;14.13;;;;;;;;;;5083264;28;20021;-44
2024/03/03 04:35:13;;;;;;;16.58;13.30;;;;;;;;;;5081201;28;20024;-48
2024/03/03 04:37:39;;;;;;;17.10;15.05;;;;;;;;;;5055282;28;20024;-45
2024/03/03 04:40:07;;;;;;;17.70;14.75;;;;;;;;;;5066867;28;20028;-45
2024/03/03 04:42:34;;;;;;;18.85;14.70;;;;;;;;;;5066785;28;20021;-43
2024/03/03 04:45:01;;;;;;;16.35;14.02;;;;;;;;;;5072550;28;20067;-51
2024/03/03 04:47:27;;;;;;;16.27;14.65;;;;;;;;;;5086519;28;20067;-45
2024/03/03 04:49:54;;;;;;;16.73;14.80;;;;;;;;;;5086503;28;20236;-46
2024/03/03 04:52:21;;;;;;;18.13;14.65;;;;;;;;;;5086630;28;20088;-44
2024/03/03 04:54:47;;;;;;;18.98;14.35;;;;;;;;;;5086541;28;20028;-45
2024/03/03 04:57:14;;;;;;;16.02;14.43;;;;;;;;;;5069227;28;20240;-46
2024/03/03 04:59:40;;;;;;;16.48;14.65;;;;;;;;;;5066114;28;20205;-45
2024/03/03 05:02:08;;;;;;;16.20;14.23;;;;;;;;;;5082002;28;20020;-47
2024/03/03 05:04:34;;;;;;;17.58;15.77;;;;;;;;;;5086075;28;20024;-42
2024/03/03 05:07:01;;;;;;;17.88;15.60;;;;;;;;;;5086329;28;20027;-47
2024/03/03 05:09:27;;;;;;;214.95;26.88;;;;;;;;;;5086214;28;20020;-51
2024/03/03 05:11:54;;;;;;;19.08;15.70;;;;;;;;;;5086648;28;20055;-48
2024/03/03 05:14:21;;;;;;;15.65;14.10;;;;;;;;;;5085929;28;20040;-49
2024/03/03 05:16:47;;;;;;;15.60;14.13;;;;;;;;;;5086498;28;20312;-55
2024/03/03 05:19:16;;;;;;;16.60;14.93;;;;;;;;;;5086042;28;20031;-46
2024/03/03 05:21:42;;;;;;;17.25;15.45;;;;;;;;;;5086097;28;20098;-52
2024/03/03 05:24:10;;;;;;;18.95;14.88;;;;;;;;;;5075210;28;20032;-50
2024/03/03 05:26:37;;;;;;;18.23;15.40;;;;;;;;;;5066223;28;20032;-48
2024/03/03 05:29:04;;;;;;;16.52;14.82;;;;;;;;;;5065544;28;20025;-49
2024/03/03 05:31:34;;;;;;;17.55;15.38;;;;;;;;;;5066109;28;20048;-45
2024/03/03 05:34:00;;;;;;;16.95;14.98;;;;;;;;;;5065599;28;20084;-49
2024/03/03 05:36:27;;;;;;;19.25;15.15;;;;;;;;;;5065856;28;20254;-44
2024/03/03 05:38:53;;;;;;;17.63;15.75;;;;;;;;;;5065702;28;20198;-46
2024/03/03 05:41:24;;;;;;;16.80;15.10;;;;;;;;;;5065449;28;20032;-49
2024/03/03 05:43:51;;;;;;;17.13;15.07;;;;;;;;;;5065377;28;20028;-45
2024/03/03 05:46:17;;;;;;;18.77;14.95;;;;;;;;;;5064789;28;20117;-49
2024/03/03 05:48:44;;;;;;;16.67;14.90;;;;;;;;;;5065282;28;20021;-48
2024/03/03 05:51:10;;;;;;;17.83;15.50;;;;;;;;;;5065468;28;20055;-46
2024/03/03 05:53:40;;;;;;;17.15;15.40;;;;;;;;;;5065475;28;20023;-49
2024/03/03 05:56:06;;;;;;;16.38;14.65;;;;;;;;;;5065639;28;20079;-45
2024/03/03 05:58:33;;;;;;;16.60;14.75;;;;;;;;;;5065038;28;20165;-47
2024/03/03 06:01:02;;;;;;;16.58;14.90;;;;;;;;;;5065563;28;20321;-43
2024/03/03 06:03:28;;;;;;;16.40;14.63;;;;;;;;;;5064992;28;20029;-46
2024/03/03 06:05:55;;;;;;;16.58;14.30;;;;;;;;;;5065204;28;20079;-44
2024/03/03 06:08:22;;;;;;;16.63;14.70;;;;;;;;;;5064992;28;20089;-46
2024/03/03 06:10:48;;;;;;;17.33;14.60;;;;;;;;;;5065205;28;20043;-45
2024/03/03 06:13:15;;;;;;;16.88;14.75;;;;;;;;;;5064796;28;20013;-43
2024/03/03 06:15:41;;;;;;;16.50;14.60;;;;;;;;;;5065161;28;20025;-44
2024/03/03 06:18:08;;;;;;;17.42;15.35;;;;;;;;;;5064891;28;20248;-47
2024/03/03 06:20:35;;;;;;;17.08;15.27;;;;;;;;;;5064786;28;20025;-44
2024/03/03 06:23:01;;;;;;;15.85;14.27;;;;;;;;;;5064716;28;20051;-47
2024/03/03 06:25:28;;;;;;;17.88;14.65;;;;;;;;;;5064630;28;20029;-47
2024/03/03 06:27:54;;;;;;;17.15;15.45;;;;;;;;;;5064566;28;20029;-56
2024/03/03 06:30:21;;;;;;;15.68;14.02;;;;;;;;;;5064790;28;20025;-47
2024/03/03 06:32:47;;;;;;;22.17;15.52;;;;;;;;;;5064756;28;20017;-49
2024/03/03 06:35:14;;;;;;;18.48;15.02;;;;;;;;;;5064486;28;20090;-45
2024/03/03 06:37:41;;;;;;;16.60;14.82;;;;;;;;;;5064548;28;20080;-44
2024/03/03 06:40:09;;;;;;;17.65;14.82;;;;;;;;;;5064618;28;20241;-50
2024/03/03 06:42:36;;;;;;;17.92;15.18;;;;;;;;;;5064249;28;20368;-45
2024/03/03 06:45:03;;;;;;;16.05;14.48;;;;;;;;;;5064160;28;20033;-42
2024/03/03 06:47:29;;;;;;;16.67;14.95;;;;;;;;;;5064301;28;20012;-48
2024/03/03 06:49:56;;;;;;;16.65;14.73;;;;;;;;;;5064268;28;20036;-47
2024/03/03 06:52:23;;;;;;;16.58;14.88;;;;;;;;;;5064245;28;20028;-44
2024/03/03 06:54:49;;;;;;;16.77;14.68;;;;;;;;;;5064126;28;20039;-43
2024/03/03 06:57:16;;;;;;;16.92;15.27;;;;;;;;;;5064004;28;20029;-48
2024/03/03 06:59:42;;;;;;;17.15;15.40;;;;;;;;;;5064049;28;20024;-51
2024/03/03 07:02:09;;;;;;;17.02;15.23;;;;;;;;;;5055674;28;20076;-47
2024/03/03 07:04:36;;;;;;;16.88;15.18;;;;;;;;;;5056685;28;20021;-50
2024/03/03 07:07:03;;;;;;;16.75;14.98;;;;;;;;;;5049907;28;20044;-53
2024/03/03 07:09:29;;;;;;;17.70;14.73;;;;;;;;;;5044170;28;20085;-52
2024/03/03 07:11:57;;;;;;;19.13;14.35;;;;;;;;;;5044071;28;20026;-53
2024/03/03 07:14:25;;;;;;;17.60;14.73;;;;;;;;;;5043955;28;20306;-53
2024/03/03 07:16:53;;;;;;;15.70;14.05;;;;;;;;;;5044448;28;20201;-51
2024/03/03 07:19:20;;;;;;;17.27;15.48;;;;;;;;;;5043906;28;20088;-51
2024/03/03 07:21:46;;;;;;;17.33;14.95;;;;;;;;;;5044321;28;20033;-50
2024/03/03 07:24:13;;;;;;;16.40;14.75;;;;;;;;;;5043972;28;20045;-49
2024/03/03 07:26:39;;;;;;;16.58;14.93;;;;;;;;;;5044296;28;20040;-54
2024/03/03 07:29:07;;;;;;;16.38;14.63;;;;;;;;;;5043762;28;20314;-48
2024/03/03 07:31:34;;;;;;;23.45;14.73;;;;;;;;;;5044424;28;20105;-52
2024/03/03 07:34:01;;;;;;;17.33;15.00;;;;;;;;;;5043971;28;20029;-54
2024/03/03 07:36:28;;;;;;;16.27;14.60;;;;;;;;;;5044018;28;20025;-56
2024/03/03 07:38:54;;;;;;;17.58;14.82;;;;;;;;;;5043821;28;20025;-50
2024/03/03 07:41:21;;;;;;;19.15;14.70;;;;;;;;;;5044138;28;20029;-54
2024/03/03 07:43:47;;;;;;;17.08;14.95;;;;;;;;;;5043569;28;20032;-50
2024/03/03 07:46:14;;;;;;;18.02;14.80;;;;;;;;;;5043614;28;20053;-50
2024/03/03 07:48:41;;;;;;;20.27;15.10;;;;;;;;;;5043598;28;20321;-49
2024/03/03 07:51:08;;;;;;;20.38;15.13;;;;;;;;;;5043893;28;20257;-56
2024/03/03 07:53:34;;;;;;;16.08;14.20;;;;;;;;;;5043929;28;20045;-49
2024/03/03 07:56:01;;;;;;;16.35;14.65;;;;;;;;;;5043904;28;20036;-52
2024/03/03 07:58:28;;;;;;;16.10;14.50;;;;;;;;;;5043527;28;20080;-53
2024/03/03 08:00:54;;;;;;;16.15;14.45;;;;;;;;;;5043935;28;20030;-61
2024/03/03 08:03:21;;;;;;;16.60;14.13;;;;;;;;;;5043753;28;20025;-57
2024/03/03 08:05:47;;;;;;;17.67;14.75;;;;;;;;;;5043584;28;20029;-51
2024/03/03 08:08:14;;;;;;;15.93;14.38;;;;;;;;;;5043451;28;20305;-53
2024/03/03 08:10:41;;;;;;;16.13;14.43;;;;;;;;;;5045265;28;20025;-51
2024/03/03 08:13:07;;;;;;;16.20;13.77;;;;;;;;;;5062718;28;20020;-51
2024/03/03 08:15:34;;;;;;;16.52;14.20;;;;;;;;;;5047429;28;20040;-51
2024/03/03 08:18:03;;;;;;;15.80;14.13;;;;;;;;;;5047202;28;20026;-54
2024/03/03 08:20:30;;;;;;;15.40;13.90;;;;;;;;;;5047208;28;20033;-50
2024/03/03 08:22:57;;;;;;;16.52;13.93;;;;;;;;;;5047224;28;20021;-51
2024/03/03 08:25:24;;;;;;;14.85;13.35;;;;;;;;;;5047424;28;20056;-45
2024/03/03 08:27:50;;;;;;;15.57;13.98;;;;;;;;;;5046857;28;20070;-45
2024/03/03 08:30:17;;;;;;;15.23;13.82;;;;;;;;;;5047076;28;20068;-50
2024/03/03 08:32:44;;;;;;;16.10;13.75;;;;;;;;;;5046966;28;20032;-50
2024/03/03 08:35:12;;;;;;;15.30;13.77;;;;;;;;;;5046888;28;20037;-52
2024/03/03 08:37:38;;;;;;;15.20;13.63;;;;;;;;;;5046802;28;20024;-50
2024/03/03 08:40:08;;;;;;;16.45;13.60;;;;;;;;;;5046931;28;20052;-47
2024/03/03 08:42:34;;;;;;;15.73;13.45;;;;;;;;;;5062097;28;20029;-51
2024/03/03 08:45:01;;;;;;;16.60;13.90;;;;;;;;;;5046509;28;20139;-50
2024/03/03 08:47:28;;;;;;;14.63;13.00;;;;;;;;;;5046613;28;20056;-51
2024/03/03 08:49:54;;;;;;;15.10;13.60;;;;;;;;;;5046418;28;20100;-51
2024/03/03 08:52:21;;;;;;;17.75;13.95;;;;;;;;;;5046861;28;20029;-49
2024/03/03 08:54:47;;;;;;;14.85;12.60;;;;;;;;;;5046448;28;20024;-44
2024/03/03 08:57:14;;;;;;;16.17;12.52;;;;;;;;;;5046440;28;20045;-55
2024/03/03 08:59:41;;;;;;;13.65;12.45;;;;;;;;;;5046367;28;20238;-43
2024/03/03 09:02:07;;;;;;;14.02;12.60;;;;;;;;;;5046403;28;20021;-43
2024/03/03 09:04:37;;;;;;;13.75;12.35;;;;;;;;;;5046235;28;20093;-49
2024/03/03 09:07:05;;;;;;;15.63;13.30;;;;;;;;;;5046458;28;20017;-53
2024/03/03 09:09:32;;;;;;;15.38;12.50;;;;;;;;;;5046046;28;20363;-47
2024/03/03 09:11:59;;;;;;;14.07;12.60;;;;;;;;;;5046212;28;20021;-48
2024/03/03 09:14:26;;;;;;;14.38;12.90;;;;;;;;;;5046439;28;20384;-51
2024/03/03 09:16:52;;;;;;;13.40;12.00;;;;;;;;;;5046490;28;20029;-48
2024/03/03 09:19:19;;;;;;;17.73;13.02;;;;;;;;;;5046108;28;20021;-45
2024/03/03 09:21:46;;;;;;;17.58;13.07;;;;;;;;;;5045247;28;20022;-50
2024/03/03 09:24:13;;;;;;;13.80;12.25;;;;;;;;;;5045987;28;20321;-52
2024/03/03 09:26:40;;;;;;;17.10;12.93;;;;;;;;;;5046395;28;20119;-47
2024/03/03 09:29:07;;;;;;;15.38;12.32;;;;;;;;;;5045734;28;20029;-45
2024/03/03 09:31:33;;;;;;;29.38;13.38;;;;;;;;;;5046204;28;20029;-45
2024/03/03 09:34:00;;;;;;;18.13;12.70;;;;;;;;;;5045904;28;20018;-47
2024/03/03 09:36:26;;;;;;;21.67;12.98;;;;;;;;;;5046355;28;20045;-53
2024/03/03 09:38:53;;;;;;;18.52;13.02;;;;;;;;;;5045783;28;20017;-52
2024/03/03 09:41:19;;;;;;;19.42;12.65;;;;;;;;;;5045623;28;20040;-59
2024/03/03 09:43:50;;;;;;;16.33;13.13;;;;;;;;;;5045413;28;20021;-56
2024/03/03 09:46:17;;;;;;;21.45;13.07;;;;;;;;;;5045563;28;20057;-49
2024/03/03 09:48:44;;;;;;;29.58;14.30;;;;;;;;;;5045511;28;20081;-52
2024/03/03 09:51:12;;;;;;;24.52;13.68;;;;;;;;;;5045642;28;20037;-48
2024/03/03 09:53:39;;;;;;;21.13;12.90;;;;;;;;;;5045395;28;20032;-49
2024/03/03 09:56:07;;;;;;;23.73;13.02;;;;;;;;;;5045812;28;20235;-52
2024/03/03 09:58:34;;;;;;;16.55;12.82;;;;;;;;;;5045230;28;20079;-42
2024/03/03 10:01:01;;;;;;;17.48;13.57;;;;;;;;;;5045064;28;20029;-40
2024/03/03 10:03:29;;;;;;;20.90;13.02;;;;;;;;;;5043414;28;20029;-42
2024/03/03 10:05:57;;;;;;;16.17;12.90;;;;;;;;;;5043617;28;20021;-43
2024/03/03 10:08:26;;;;;;;17.77;12.90;;;;;;;;;;5043279;28;20029;-44
2024/03/03 10:10:55;;;;;;;15.57;13.60;;;;;;;;;;5043610;28;20298;-41
2024/03/03 10:13:21;;;;;;;17.27;13.13;;;;;;;;;;5043585;28;20029;-41
2024/03/03 10:15:49;;;;;;;16.75;13.30;;;;;;;;;;5043686;28;20072;-37
2024/03/03 10:18:16;;;;;;;15.98;12.98;;;;;;;;;;5045135;28;20056;-44
2024/03/03 10:20:42;;;;;;;13.65;12.32;;;;;;;;;;5045080;28;20374;-47
2024/03/03 10:23:20;;;;;;;13.93;12.52;;;;;;;;;;5044782;28;20040;-54
2024/03/03 10:25:57;;;;;;;26.83;13.50;;;;;;;;;;5062604;28;20029;-51
2024/03/03 10:28:24;;;;;;;18.17;12.48;;;;;;;;;;5065187;28;20055;-38
2024/03/03 10:30:51;;;;;;;18.60;12.73;;;;;;;;;;5064881;28;20017;-42
2024/03/03 10:33:18;;;;;;;17.55;12.48;;;;;;;;;;5064396;28;20031;-52
2024/03/03 10:35:45;;;;;;;18.38;12.43;;;;;;;;;;5065472;28;20025;-47
2024/03/03 10:38:11;;;;;;;15.23;12.20;;;;;;;;;;5064660;28;20029;-40
2024/03/03 10:40:38;;;;;;;15.30;11.75;;;;;;;;;;5064843;28;20032;-37
2024/03/03 10:43:05;;;;;;;19.30;12.18;;;;;;;;;;5064741;28;20047;-46
2024/03/03 10:45:31;;;;;;;15.23;12.13;;;;;;;;;;5064511;28;20060;-38
2024/03/03 10:47:59;;;;;;;22.50;12.23;;;;;;;;;;5064769;28;20032;-37
2024/03/03 10:50:26;;;;;;;18.13;12.63;;;;;;;;;;5064511;28;20070;-44
2024/03/03 10:52:54;;;;;;;21.75;12.55;;;;;;;;;;5064400;28;20032;-39
2024/03/03 10:55:20;;;;;;;35.63;17.15;;;;;;;;;;5064324;28;20028;-38
2024/03/03 10:57:48;;;;;;;27.20;15.32;;;;;;;;;;5064499;28;20258;-43
2024/03/03 11:00:22;;;;;;;22.55;14.30;;;;;;;;;;5064701;28;20028;-45
2024/03/03 11:02:50;;;;;;;29.08;16.98;;;;;;;;;;5064186;28;20021;-42
2024/03/03 11:05:17;;;;;;;26.85;17.15;;;;;;;;;;5064415;28;20063;-37
2024/03/03 11:07:44;;;;;;;22.48;15.25;;;;;;;;;;5063841;28;20013;-43
2024/03/03 11:10:11;;;;;;;19.38;15.27;;;;;;;;;;5064546;28;20080;-39
2024/03/03 11:12:38;;;;;;;20.52;14.45;;;;;;;;;;5064409;28;20084;-40
2024/03/03 11:15:05;;;;;;;20.45;14.15;;;;;;;;;;5064717;28;20029;-48
2024/03/03 11:17:34;;;;;;;16.15;13.48;;;;;;;;;;5064162;28;20024;-40
2024/03/03 11:20:02;;;;;;;21.13;14.48;;;;;;;;;;5064243;28;20083;-37
2024/03/03 11:22:35;;;;;;;17.73;12.77;;;;;;;;;;5063786;28;20017;-37
2024/03/03 11:25:02;;;;;;;17.73;13.90;;;;;;;;;;5063836;28;20115;-42
2024/03/03 11:27:31;;;;;;;19.38;12.68;;;;;;;;;;5063880;28;20021;-43
2024/03/03 11:29:58;;;;;;;17.83;12.73;;;;;;;;;;5063572;28;20056;-43
2024/03/03 11:32:26;;;;;;;21.15;12.40;;;;;;;;;;5063742;28;20291;-42
2024/03/03 11:34:54;;;;;;;14.93;11.98;;;;;;;;;;5063710;28;20024;-49
2024/03/03 11:37:22;;;;;;;14.60;12.02;;;;;;;;;;5063478;28;20063;-47
2024/03/03 11:39:59;;;;;;;19.05;12.07;;;;;;;;;;5063904;28;20021;-43
2024/03/03 11:42:34;;;;;;;23.83;11.95;;;;;;;;;;5063666;28;20024;-44
2024/03/03 11:45:01;;;;;;;16.95;11.45;;;;;;;;;;5064356;28;20024;-52
2024/03/03 11:47:34;;;;;;;19.20;11.85;;;;;;;;;;5068144;28;20024;-47
2024/03/03 11:50:01;;;;;;;18.27;11.63;;;;;;;;;;5067657;28;20044;-45
2024/03/03 11:52:44;;;;;;;17.38;11.93;;;;;;;;;;5067742;28;20083;-47
2024/03/03 11:55:11;;;;;;;16.90;11.95;;;;;;;;;;5067608;28;20021;-50
2024/03/03 11:57:41;;;;;;;18.23;11.82;;;;;;;;;;5067662;28;20063;-45
2024/03/03 12:00:13;;;;;;;15.13;12.05;;;;;;;;;;5067743;28;20017;-44
2024/03/03 12:02:42;;;;;;;24.25;12.40;;;;;;;;;;5067414;28;20205;-41
2024/03/03 12:05:10;;;;;;;21.60;12.85;;;;;;;;;;5067547;28;20052;-49
2024/03/03 12:07:41;;;;;;;25.17;12.82;;;;;;;;;;5067499;28;20080;-39
2024/03/03 12:10:15;;;;;;;19.13;12.90;;;;;;;;;;5067305;28;20096;-46
2024/03/03 12:12:42;;;;;;;20.00;11.88;;;;;;;;;;5067460;28;20055;-48
2024/03/03 12:15:09;;;;;;;22.30;12.73;;;;;;;;;;5066121;28;20084;-44
2024/03/03 12:17:35;;;;;;;19.65;14.00;;;;;;;;;;5058684;28;20029;-43
2024/03/03 12:20:06;;;;;;;18.92;13.93;;;;;;;;;;5067093;28;20029;-43
2024/03/03 12:22:33;;;;;;;19.38;14.63;;;;;;;;;;5066987;28;20021;-50
2024/03/03 12:25:01;;;;;;;18.52;14.32;;;;;;;;;;5063766;28;20088;-47
2024/03/03 12:27:27;;;;;;;21.33;14.95;;;;;;;;;;5067158;28;20333;-42
2024/03/03 12:29:58;;;;;;;20.92;14.95;;;;;;;;;;5067190;28;20033;-47
2024/03/03 12:32:25;;;;;;;17.83;15.50;;;;;;;;;;5066999;28;20017;-47
2024/03/03 12:34:51;;;;;;;21.77;16.50;;;;;;;;;;5067080;28;20051;-46
2024/03/03 12:37:19;;;;;;;23.20;16.88;;;;;;;;;;5059392;28;20085;-41
2024/03/03 12:39:46;;;;;;;23.27;16.63;;;;;;;;;;5046783;28;20021;-47
2024/03/03 12:42:12;;;;;;;20.33;16.33;;;;;;;;;;5046901;28;20025;-45
2024/03/03 12:44:39;;;;;;;45.88;18.65;;;;;;;;;;5046583;28;20024;-48
2024/03/03 12:47:12;;;;;;;26.80;18.80;;;;;;;;;;5046741;28;20053;-44
2024/03/03 12:49:39;;;;;;;25.73;18.58;;;;;;;;;;5046613;28;20305;-43
2024/03/03 12:52:06;;;;;;;29.35;18.38;;;;;;;;;;5046850;28;20021;-43
2024/03/03 12:54:33;;;;;;;25.02;19.27;;;;;;;;;;5046788;28;20018;-42
2024/03/03 12:56:59;;;;;;;28.45;19.50;;;;;;;;;;5046331;28;20084;-39
2024/03/03 12:59:26;;;;;;;26.88;20.23;;;;;;;;;;5046937;28;20017;-45
2024/03/03 13:01:53;;;;;;;28.58;19.10;;;;;;;;;;5047133;28;20029;-43
2024/03/03 13:04:22;;;;;;;34.80;19.42;;;;;;;;;;5046864;28;20328;-45
2024/03/03 13:06:50;;;;;;;66.65;22.88;;;;;;;;;;5066884;28;20094;-43
2024/03/03 13:09:16;;;;;;;46.60;21.33;;;;;;;;;;5066524;28;20020;-40
2024/03/03 13:11:43;;;;;;;49.80;21.05;;;;;;;;;;5066959;28;20036;-42
2024/03/03 13:14:09;;;;;;;54.72;22.67;;;;;;;;;;5065991;28;20324;-43
2024/03/03 13:16:36;;;;;;;46.67;21.42;;;;;;;;;;5066821;28;20048;-45
2024/03/03 13:19:03;;;;;;;39.20;21.20;;;;;;;;;;5066067;28;20024;-44
2024/03/03 13:21:29;;;;;;;37.53;20.50;;;;;;;;;;5066193;28;20032;-40
2024/03/03 13:24:12;;;;;;;36.53;20.63;;;;;;;;;;5065926;28;20161;-39
2024/03/03 13:26:38;;;;;;;;;;;;;;;;;;5066656;28;20059;-40
2024/03/03 13:29:04;;;;;;;34.45;20.55;;;;;;;;;;5065720;28;20189;-42
2024/03/03 13:31:31;;;;;;;29.60;19.55;;;;;;;;;;5066254;28;20025;-42
2024/03/03 13:33:57;;;;;;;32.20;19.15;;;;;;;;;;5065997;28;20021;-45
2024/03/03 13:36:24;;;;;;;30.27;19.92;;;;;;;;;;5066286;28;20031;-41
2024/03/03 13:38:51;;;;;;;25.92;19.48;;;;;;;;;;5065827;28;20055;-43
2024/03/03 13:41:17;;;;;;;28.30;20.02;;;;;;;;;;5065720;28;20032;-37
2024/03/03 13:43:44;;;;;;;26.50;19.65;;;;;;;;;;5064058;28;20016;-45
2024/03/03 13:46:10;;;;;;;32.03;19.80;;;;;;;;;;5045898;28;20115;-41
2024/03/03 13:48:37;;;;;;;29.20;20.10;;;;;;;;;;5065947;28;20024;-39
2024/03/03 13:51:04;;;;;;;29.90;20.33;;;;;;;;;;5058843;28;20049;-43
2024/03/03 13:53:31;;;;;;;24.45;19.65;;;;;;;;;;5060464;28;20021;-36
2024/03/03 13:55:57;;;;;;;22.60;19.27;;;;;;;;;;5064422;28;20029;-41
2024/03/03 13:58:24;;;;;;;27.02;19.20;;;;;;;;;;5064854;28;20067;-38
2024/03/03 14:00:50;;;;;;;28.15;19.33;;;;;;;;;;5065331;28;20024;-37
2024/03/03 14:03:17;;;;;;;25.98;18.55;;;;;;;;;;5065032;28;20066;-48
2024/03/03 14:05:44;;;;;;;76.10;21.42;;;;;;;;;;5065097;28;20174;-40
2024/03/03 14:08:12;;;;;;;49.47;20.55;;;;;;;;;;5064561;28;20020;-38
2024/03/03 14:10:39;;;;;;;58.58;20.20;;;;;;;;;;5065443;28;20028;-43
2024/03/03 14:13:06;;;;;;;70.63;21.63;;;;;;;;;;5064800;28;20017;-52
2024/03/03 14:15:32;;;;;;;44.22;19.65;;;;;;;;;;5064499;28;20025;-42